sensor_id;sensor_type;location;lat;lon;timestamp;temperature;humidity
33881;DHT22;20172;47.530;10.256;2022-11-20T00:02:17;6.50;99.90
33881;DHT22;20172;47.530;10.256;2022-11-20T00:04:43;6.50;99.90
33881;DHT22;20172;47.530;10.256;2022-11-20T00:07:08;6.50;99.90
33881;DHT22;20172;47.530;10.256;2022-11-20T00:09:34;6.30;99.90
33881;DHT22;20172;47.530;10.256;2022-11-20T00:11:59;6.30;99.90
33881;DHT22;20172;47.530;10.256;2022-11-20T00:14:25;6.40;99.90
33881;DHT22;20172;47.530;10.256;2022-11-20T00:16:50;6.20;99.90
33881;DHT22;20172;47.530;10.256;2022-11-20T00:19:16;6.10;99.90
33881;DHT22;20172;47.530;10.256;2022-11-20T00:21:41;6.00;99.90
33881;DHT22;20172;47.530;10.256;2022-11-20T00:24:09;6.00;99.90
33881;DHT22;20172;47.530;10.256;2022-11-20T00:26:38;6.00;99.90
33881;DHT22;20172;47.530;10.256;2022-11-20T00:29:03;6.00;99.90
33881;DHT22;20172;47.530;10.256;2022-11-20T00:31:31;6.10;99.90
33881;DHT22;20172;47.530;10.256;2022-11-20T00:33:58;6.00;99.90
33881;DHT22;20172;47.530;10.256;2022-11-20T00:36:24;6.00;99.90
33881;DHT22;20172;47.530;10.256;2022-11-20T00:38:54;6.00;99.90
33881;DHT22;20172;47.530;10.256;2022-11-20T00:41:20;5.90;99.90
33881;DHT22;20172;47.530;10.256;2022-11-20T00:43:46;5.90;99.90
33881;DHT22;20172;47.530;10.256;2022-11-20T00:46:13;6.00;99.90
33881;DHT22;20172;47.530;10.256;2022-11-20T00:48:38;6.00;99.90
33881;DHT22;20172;47.530;10.256;2022-11-20T00:51:04;6.00;99.90
33881;DHT22;20172;47.530;10.256;2022-11-20T00:53:30;6.00;99.90
33881;DHT22;20172;47.530;10.256;2022-11-20T00:55:56;6.10;99.90
33881;DHT22;20172;47.530;10.256;2022-11-20T00:58:22;6.20;99.90
33881;DHT22;20172;47.530;10.256;2022-11-20T01:00:47;6.30;99.90
33881;DHT22;20172;47.530;10.256;2022-11-20T01:03:15;6.30;99.90
33881;DHT22;20172;47.530;10.256;2022-11-20T01:05:40;6.30;99.90
33881;DHT22;20172;47.530;10.256;2022-11-20T01:08:06;6.20;99.90
33881;DHT22;20172;47.530;10.256;2022-11-20T01:10:31;6.20;99.90
33881;DHT22;20172;47.530;10.256;2022-11-20T01:12:57;6.20;99.90
33881;DHT22;20172;47.530;10.256;2022-11-20T01:15:41;6.20;99.90
33881;DHT22;20172;47.530;10.256;2022-11-20T01:18:06;6.20;99.90
33881;DHT22;20172;47.530;10.256;2022-11-20T01:20:35;6.20;99.90
33881;DHT22;20172;47.530;10.256;2022-11-20T01:23:01;6.30;99.90
33881;DHT22;20172;47.530;10.256;2022-11-20T01:25:27;6.40;99.90
33881;DHT22;20172;47.530;10.256;2022-11-20T01:27:52;6.40;99.90
33881;DHT22;20172;47.530;10.256;2022-11-20T01:30:20;6.40;99.90
33881;DHT22;20172;47.530;10.256;2022-11-20T01:32:45;6.30;99.90
33881;DHT22;20172;47.530;10.256;2022-11-20T01:35:11;6.20;99.90
33881;DHT22;20172;47.530;10.256;2022-11-20T01:37:36;6.30;99.90
33881;DHT22;20172;47.530;10.256;2022-11-20T01:40:02;6.20;99.90
33881;DHT22;20172;47.530;10.256;2022-11-20T01:42:27;6.20;99.90
33881;DHT22;20172;47.530;10.256;2022-11-20T01:47:56;6.20;99.90
33881;DHT22;20172;47.530;10.256;2022-11-20T01:50:22;6.20;99.90
33881;DHT22;20172;47.530;10.256;2022-11-20T01:52:51;6.20;99.90
33881;DHT22;20172;47.530;10.256;2022-11-20T01:55:18;6.00;99.90
33881;DHT22;20172;47.530;10.256;2022-11-20T01:57:45;6.00;99.90
33881;DHT22;20172;47.530;10.256;2022-11-20T02:00:12;6.00;99.90
33881;DHT22;20172;47.530;10.256;2022-11-20T02:02:38;6.10;99.90
33881;DHT22;20172;47.530;10.256;2022-11-20T02:05:11;6.10;99.90
33881;DHT22;20172;47.530;10.256;2022-11-20T02:07:37;5.90;99.90
33881;DHT22;20172;47.530;10.256;2022-11-20T02:10:03;5.80;99.90
33881;DHT22;20172;47.530;10.256;2022-11-20T02:12:28;5.80;99.90
33881;DHT22;20172;47.530;10.256;2022-11-20T02:15:12;5.70;99.90
33881;DHT22;20172;47.530;10.256;2022-11-20T02:17:38;5.70;99.90
33881;DHT22;20172;47.530;10.256;2022-11-20T02:20:03;5.70;99.90
33881;DHT22;20172;47.530;10.256;2022-11-20T02:22:30;5.70;99.90
33881;DHT22;20172;47.530;10.256;2022-11-20T02:24:58;5.80;99.90
33881;DHT22;20172;47.530;10.256;2022-11-20T02:27:25;5.80;99.90
33881;DHT22;20172;47.530;10.256;2022-11-20T02:29:52;5.60;99.90
33881;DHT22;20172;47.530;10.256;2022-11-20T02:32:21;5.70;99.90
33881;DHT22;20172;47.530;10.256;2022-11-20T02:34:47;5.70;99.90
33881;DHT22;20172;47.530;10.256;2022-11-20T02:37:12;5.70;99.90
33881;DHT22;20172;47.530;10.256;2022-11-20T02:39:39;5.80;99.90
33881;DHT22;20172;47.530;10.256;2022-11-20T02:42:05;5.80;99.90
33881;DHT22;20172;47.530;10.256;2022-11-20T02:44:31;5.80;99.90
33881;DHT22;20172;47.530;10.256;2022-11-20T02:46:57;5.90;99.90
33881;DHT22;20172;47.530;10.256;2022-11-20T02:49:22;5.90;99.90
33881;DHT22;20172;47.530;10.256;2022-11-20T02:51:48;5.90;99.90
33881;DHT22;20172;47.530;10.256;2022-11-20T02:54:13;6.00;99.90
33881;DHT22;20172;47.530;10.256;2022-11-20T02:56:39;6.10;99.90
33881;DHT22;20172;47.530;10.256;2022-11-20T02:59:04;6.10;99.90
33881;DHT22;20172;47.530;10.256;2022-11-20T03:01:30;6.10;99.90
33881;DHT22;20172;47.530;10.256;2022-11-20T03:03:55;6.10;99.90
33881;DHT22;20172;47.530;10.256;2022-11-20T03:06:21;6.20;99.90
33881;DHT22;20172;47.530;10.256;2022-11-20T03:08:47;6.30;99.90
33881;DHT22;20172;47.530;10.256;2022-11-20T03:11:12;6.30;99.90
33881;DHT22;20172;47.530;10.256;2022-11-20T03:13:38;6.40;99.90
33881;DHT22;20172;47.530;10.256;2022-11-20T03:16:22;6.40;99.90
33881;DHT22;20172;47.530;10.256;2022-11-20T03:18:47;6.50;99.90
33881;DHT22;20172;47.530;10.256;2022-11-20T03:21:14;6.50;99.90
33881;DHT22;20172;47.530;10.256;2022-11-20T03:23:39;6.40;99.90
33881;DHT22;20172;47.530;10.256;2022-11-20T03:26:13;6.40;99.90
33881;DHT22;20172;47.530;10.256;2022-11-20T03:28:40;6.30;99.90
33881;DHT22;20172;47.530;10.256;2022-11-20T03:31:10;6.30;99.90
33881;DHT22;20172;47.530;10.256;2022-11-20T03:33:36;6.30;99.90
33881;DHT22;20172;47.530;10.256;2022-11-20T03:36:02;6.30;99.90
33881;DHT22;20172;47.530;10.256;2022-11-20T03:38:29;6.20;99.90
33881;DHT22;20172;47.530;10.256;2022-11-20T03:40:57;6.10;99.90
33881;DHT22;20172;47.530;10.256;2022-11-20T03:43:23;6.00;99.90
33881;DHT22;20172;47.530;10.256;2022-11-20T03:45:48;6.00;99.90
33881;DHT22;20172;47.530;10.256;2022-11-20T03:48:14;5.90;99.90
33881;DHT22;20172;47.530;10.256;2022-11-20T03:50:39;5.90;99.90
33881;DHT22;20172;47.530;10.256;2022-11-20T03:53:05;5.90;99.90
33881;DHT22;20172;47.530;10.256;2022-11-20T03:55:30;5.90;99.90
33881;DHT22;20172;47.530;10.256;2022-11-20T03:57:56;5.90;99.90
33881;DHT22;20172;47.530;10.256;2022-11-20T04:00:21;5.90;99.90
33881;DHT22;20172;47.530;10.256;2022-11-20T04:02:47;5.90;99.90
33881;DHT22;20172;47.530;10.256;2022-11-20T04:05:13;5.90;99.90
33881;DHT22;20172;47.530;10.256;2022-11-20T04:07:39;5.80;99.90
33881;DHT22;20172;47.530;10.256;2022-11-20T04:10:04;5.80;99.90
33881;DHT22;20172;47.530;10.256;2022-11-20T04:12:33;5.70;99.90
33881;DHT22;20172;47.530;10.256;2022-11-20T04:14:59;5.70;99.90
33881;DHT22;20172;47.530;10.256;2022-11-20T04:17:24;5.80;99.90
33881;DHT22;20172;47.530;10.256;2022-11-20T04:19:50;5.70;99.90
33881;DHT22;20172;47.530;10.256;2022-11-20T04:22:15;5.70;99.90
33881;DHT22;20172;47.530;10.256;2022-11-20T04:24:41;5.70;99.90
33881;DHT22;20172;47.530;10.256;2022-11-20T04:27:06;5.70;99.90
33881;DHT22;20172;47.530;10.256;2022-11-20T04:29:32;5.90;99.90
33881;DHT22;20172;47.530;10.256;2022-11-20T04:31:57;5.90;99.90
33881;DHT22;20172;47.530;10.256;2022-11-20T04:34:23;5.90;99.90
33881;DHT22;20172;47.530;10.256;2022-11-20T04:36:48;6.00;99.90
33881;DHT22;20172;47.530;10.256;2022-11-20T04:39:14;6.00;99.90
33881;DHT22;20172;47.530;10.256;2022-11-20T04:41:42;5.90;99.90
33881;DHT22;20172;47.530;10.256;2022-11-20T04:44:08;5.90;99.90
33881;DHT22;20172;47.530;10.256;2022-11-20T04:46:37;5.90;99.90
33881;DHT22;20172;47.530;10.256;2022-11-20T04:49:03;5.90;99.90
33881;DHT22;20172;47.530;10.256;2022-11-20T04:51:29;6.00;99.90
33881;DHT22;20172;47.530;10.256;2022-11-20T04:53:55;6.00;99.90
33881;DHT22;20172;47.530;10.256;2022-11-20T04:56:20;6.00;99.90
33881;DHT22;20172;47.530;10.256;2022-11-20T04:58:46;6.10;99.90
33881;DHT22;20172;47.530;10.256;2022-11-20T05:01:18;6.20;99.90
33881;DHT22;20172;47.530;10.256;2022-11-20T05:03:45;6.30;99.90
33881;DHT22;20172;47.530;10.256;2022-11-20T05:06:11;6.20;99.90
33881;DHT22;20172;47.530;10.256;2022-11-20T05:08:37;6.20;99.90
33881;DHT22;20172;47.530;10.256;2022-11-20T05:11:12;6.10;99.90
33881;DHT22;20172;47.530;10.256;2022-11-20T05:13:38;6.10;99.90
33881;DHT22;20172;47.530;10.256;2022-11-20T05:16:05;6.00;99.90
33881;DHT22;20172;47.530;10.256;2022-11-20T05:18:31;6.10;99.90
33881;DHT22;20172;47.530;10.256;2022-11-20T05:20:57;6.10;99.90
33881;DHT22;20172;47.530;10.256;2022-11-20T05:23:23;6.00;99.90
33881;DHT22;20172;47.530;10.256;2022-11-20T05:25:51;6.10;99.90
33881;DHT22;20172;47.530;10.256;2022-11-20T05:28:17;6.10;99.90
33881;DHT22;20172;47.530;10.256;2022-11-20T05:30:42;6.00;99.90
33881;DHT22;20172;47.530;10.256;2022-11-20T05:33:07;6.00;99.90
33881;DHT22;20172;47.530;10.256;2022-11-20T05:35:33;6.00;99.90
33881;DHT22;20172;47.530;10.256;2022-11-20T05:37:58;6.00;99.90
33881;DHT22;20172;47.530;10.256;2022-11-20T05:40:24;6.10;99.90
33881;DHT22;20172;47.530;10.256;2022-11-20T05:42:50;6.10;99.90
33881;DHT22;20172;47.530;10.256;2022-11-20T05:45:16;6.10;99.90
33881;DHT22;20172;47.530;10.256;2022-11-20T05:47:41;6.20;99.90
33881;DHT22;20172;47.530;10.256;2022-11-20T05:50:07;6.20;99.90
33881;DHT22;20172;47.530;10.256;2022-11-20T05:52:33;6.20;99.90
33881;DHT22;20172;47.530;10.256;2022-11-20T05:54:58;6.20;99.90
33881;DHT22;20172;47.530;10.256;2022-11-20T05:57:24;6.20;99.90
33881;DHT22;20172;47.530;10.256;2022-11-20T05:59:49;6.20;99.90
33881;DHT22;20172;47.530;10.256;2022-11-20T06:02:15;6.20;99.90
33881;DHT22;20172;47.530;10.256;2022-11-20T06:04:41;6.20;99.90
33881;DHT22;20172;47.530;10.256;2022-11-20T06:07:06;6.00;99.90
33881;DHT22;20172;47.530;10.256;2022-11-20T06:09:32;6.00;99.90
33881;DHT22;20172;47.530;10.256;2022-11-20T06:11:57;6.00;99.90
33881;DHT22;20172;47.530;10.256;2022-11-20T06:14:23;6.00;99.90
33881;DHT22;20172;47.530;10.256;2022-11-20T06:16:48;6.00;99.90
33881;DHT22;20172;47.530;10.256;2022-11-20T06:19:14;6.00;99.90
33881;DHT22;20172;47.530;10.256;2022-11-20T06:21:40;6.00;99.90
33881;DHT22;20172;47.530;10.256;2022-11-20T06:24:06;5.90;99.90
33881;DHT22;20172;47.530;10.256;2022-11-20T06:26:31;6.00;99.90
33881;DHT22;20172;47.530;10.256;2022-11-20T06:28:57;6.00;99.90
33881;DHT22;20172;47.530;10.256;2022-11-20T06:31:23;6.00;99.90
33881;DHT22;20172;47.530;10.256;2022-11-20T06:33:49;6.00;99.90
33881;DHT22;20172;47.530;10.256;2022-11-20T06:36:15;5.90;99.90
33881;DHT22;20172;47.530;10.256;2022-11-20T06:38:41;5.90;99.90
33881;DHT22;20172;47.530;10.256;2022-11-20T06:41:08;5.90;99.90
33881;DHT22;20172;47.530;10.256;2022-11-20T06:43:35;6.10;99.90
33881;DHT22;20172;47.530;10.256;2022-11-20T06:46:00;6.00;99.90
33881;DHT22;20172;47.530;10.256;2022-11-20T06:48:26;6.10;99.90
33881;DHT22;20172;47.530;10.256;2022-11-20T06:50:52;6.20;99.90
33881;DHT22;20172;47.530;10.256;2022-11-20T06:53:17;6.30;99.90
33881;DHT22;20172;47.530;10.256;2022-11-20T06:55:43;6.30;99.90
33881;DHT22;20172;47.530;10.256;2022-11-20T06:58:09;6.20;99.90
33881;DHT22;20172;47.530;10.256;2022-11-20T07:00:35;6.20;99.90
33881;DHT22;20172;47.530;10.256;2022-11-20T07:03:04;6.10;99.90
33881;DHT22;20172;47.530;10.256;2022-11-20T07:05:29;6.10;99.90
33881;DHT22;20172;47.530;10.256;2022-11-20T07:07:57;6.20;99.90
33881;DHT22;20172;47.530;10.256;2022-11-20T07:10:23;6.20;99.90
33881;DHT22;20172;47.530;10.256;2022-11-20T07:12:49;6.30;99.90
33881;DHT22;20172;47.530;10.256;2022-11-20T07:15:16;6.20;99.90
33881;DHT22;20172;47.530;10.256;2022-11-20T07:17:41;6.30;99.90
33881;DHT22;20172;47.530;10.256;2022-11-20T07:20:07;6.40;99.90
33881;DHT22;20172;47.530;10.256;2022-11-20T07:22:32;6.30;99.90
33881;DHT22;20172;47.530;10.256;2022-11-20T07:24:58;6.40;99.90
33881;DHT22;20172;47.530;10.256;2022-11-20T07:27:23;6.40;99.90
33881;DHT22;20172;47.530;10.256;2022-11-20T07:29:49;6.50;99.90
33881;DHT22;20172;47.530;10.256;2022-11-20T07:32:14;6.50;99.90
33881;DHT22;20172;47.530;10.256;2022-11-20T07:34:40;6.60;99.90
33881;DHT22;20172;47.530;10.256;2022-11-20T07:37:05;6.40;99.90
33881;DHT22;20172;47.530;10.256;2022-11-20T07:39:31;6.40;99.90
33881;DHT22;20172;47.530;10.256;2022-11-20T07:41:56;6.40;99.90
33881;DHT22;20172;47.530;10.256;2022-11-20T07:44:22;6.40;99.90
33881;DHT22;20172;47.530;10.256;2022-11-20T07:46:47;6.40;99.90
33881;DHT22;20172;47.530;10.256;2022-11-20T07:49:14;6.40;99.90
33881;DHT22;20172;47.530;10.256;2022-11-20T07:51:39;6.40;99.90
33881;DHT22;20172;47.530;10.256;2022-11-20T07:54:05;6.50;99.90
33881;DHT22;20172;47.530;10.256;2022-11-20T07:56:30;6.50;99.90
33881;DHT22;20172;47.530;10.256;2022-11-20T07:58:56;6.50;99.90
33881;DHT22;20172;47.530;10.256;2022-11-20T08:01:21;6.60;99.90
33881;DHT22;20172;47.530;10.256;2022-11-20T08:03:47;6.60;99.90
33881;DHT22;20172;47.530;10.256;2022-11-20T08:06:13;6.60;99.90
33881;DHT22;20172;47.530;10.256;2022-11-20T08:08:40;6.60;99.90
33881;DHT22;20172;47.530;10.256;2022-11-20T08:11:06;6.70;99.90
33881;DHT22;20172;47.530;10.256;2022-11-20T08:13:50;6.70;99.90
33881;DHT22;20172;47.530;10.256;2022-11-20T08:16:35;6.70;99.90
33881;DHT22;20172;47.530;10.256;2022-11-20T08:19:00;6.70;99.90
33881;DHT22;20172;47.530;10.256;2022-11-20T08:21:26;6.70;99.90
33881;DHT22;20172;47.530;10.256;2022-11-20T08:23:51;6.80;99.90
33881;DHT22;20172;47.530;10.256;2022-11-20T08:26:17;6.80;99.90
33881;DHT22;20172;47.530;10.256;2022-11-20T08:28:42;6.80;99.90
33881;DHT22;20172;47.530;10.256;2022-11-20T08:31:08;6.90;99.90
33881;DHT22;20172;47.530;10.256;2022-11-20T08:33:35;6.90;99.90
33881;DHT22;20172;47.530;10.256;2022-11-20T08:36:00;6.90;99.90
33881;DHT22;20172;47.530;10.256;2022-11-20T08:38:26;7.00;99.90
33881;DHT22;20172;47.530;10.256;2022-11-20T08:40:52;7.20;99.90
33881;DHT22;20172;47.530;10.256;2022-11-20T08:43:39;7.20;99.90
33881;DHT22;20172;47.530;10.256;2022-11-20T08:46:05;7.40;99.90
33881;DHT22;20172;47.530;10.256;2022-11-20T08:48:30;7.50;99.90
33881;DHT22;20172;47.530;10.256;2022-11-20T08:50:57;7.50;99.90
33881;DHT22;20172;47.530;10.256;2022-11-20T08:53:22;7.40;99.90
33881;DHT22;20172;47.530;10.256;2022-11-20T08:55:48;7.40;99.90
33881;DHT22;20172;47.530;10.256;2022-11-20T08:58:13;7.40;99.90
33881;DHT22;20172;47.530;10.256;2022-11-20T09:00:41;7.50;99.90
33881;DHT22;20172;47.530;10.256;2022-11-20T09:03:07;7.50;99.90
33881;DHT22;20172;47.530;10.256;2022-11-20T09:05:32;7.50;99.90
33881;DHT22;20172;47.530;10.256;2022-11-20T09:07:58;7.60;99.90
33881;DHT22;20172;47.530;10.256;2022-11-20T09:10:24;7.60;99.90
33881;DHT22;20172;47.530;10.256;2022-11-20T09:12:49;7.60;99.90
33881;DHT22;20172;47.530;10.256;2022-11-20T09:15:17;7.80;99.90
33881;DHT22;20172;47.530;10.256;2022-11-20T09:17:42;7.80;99.90
33881;DHT22;20172;47.530;10.256;2022-11-20T09:20:08;7.90;99.90
33881;DHT22;20172;47.530;10.256;2022-11-20T09:22:33;7.90;99.90
33881;DHT22;20172;47.530;10.256;2022-11-20T09:24:59;8.00;99.90
33881;DHT22;20172;47.530;10.256;2022-11-20T09:27:24;8.00;99.90
33881;DHT22;20172;47.530;10.256;2022-11-20T09:29:50;7.90;99.90
33881;DHT22;20172;47.530;10.256;2022-11-20T09:32:16;8.00;99.90
33881;DHT22;20172;47.530;10.256;2022-11-20T09:34:41;8.00;99.90
33881;DHT22;20172;47.530;10.256;2022-11-20T09:37:07;8.00;99.90
33881;DHT22;20172;47.530;10.256;2022-11-20T09:39:32;8.00;99.90
33881;DHT22;20172;47.530;10.256;2022-11-20T09:42:07;8.20;99.90
33881;DHT22;20172;47.530;10.256;2022-11-20T09:44:40;8.20;99.90
33881;DHT22;20172;47.530;10.256;2022-11-20T09:54:31;8.40;99.90
33881;DHT22;20172;47.530;10.256;2022-11-20T09:57:05;8.50;99.90
33881;DHT22;20172;47.530;10.256;2022-11-20T09:59:39;8.70;99.90
33881;DHT22;20172;47.530;10.256;2022-11-20T10:04:41;9.00;99.90
33881;DHT22;20172;47.530;10.256;2022-11-20T10:07:12;9.70;99.90
33881;DHT22;20172;47.530;10.256;2022-11-20T10:09:39;12.50;99.90
33881;DHT22;20172;47.530;10.256;2022-11-20T10:25:02;25.00;60.80
33881;DHT22;20172;47.530;10.256;2022-11-20T10:32:36;27.20;50.80
33881;DHT22;20172;47.530;10.256;2022-11-20T10:35:05;28.20;49.70
33881;DHT22;20172;47.530;10.256;2022-11-20T10:37:33;29.90;44.60
33881;DHT22;20172;47.530;10.256;2022-11-20T10:42:41;29.10;43.70
33881;DHT22;20172;47.530;10.256;2022-11-20T10:47:42;27.80;42.90
33881;DHT22;20172;47.530;10.256;2022-11-20T10:50:09;27.70;43.70
33881;DHT22;20172;47.530;10.256;2022-11-20T10:52:49;29.00;40.70
33881;DHT22;20172;47.530;10.256;2022-11-20T10:55:37;30.30;39.40
33881;DHT22;20172;47.530;10.256;2022-11-20T11:00:38;29.10;39.90
33881;DHT22;20172;47.530;10.256;2022-11-20T11:03:07;29.30;39.30
33881;DHT22;20172;47.530;10.256;2022-11-20T11:05:41;29.20;37.80
33881;DHT22;20172;47.530;10.256;2022-11-20T11:08:15;28.30;39.30
33881;DHT22;20172;47.530;10.256;2022-11-20T11:10:51;26.30;41.10
33881;DHT22;20172;47.530;10.256;2022-11-20T11:13:22;24.10;42.20
33881;DHT22;20172;47.530;10.256;2022-11-20T11:15:48;22.30;44.10
33881;DHT22;20172;47.530;10.256;2022-11-20T11:20:52;21.00;46.00
33881;DHT22;20172;47.530;10.256;2022-11-20T11:26:03;17.70;49.10
33881;DHT22;20172;47.530;10.256;2022-11-20T11:28:29;17.10;50.50
33881;DHT22;20172;47.530;10.256;2022-11-20T11:30:55;16.50;51.60
33881;DHT22;20172;47.530;10.256;2022-11-20T11:33:27;16.50;52.40
33881;DHT22;20172;47.530;10.256;2022-11-20T11:35:54;16.80;52.10
33881;DHT22;20172;47.530;10.256;2022-11-20T11:38:36;17.80;52.20
33881;DHT22;20172;47.530;10.256;2022-11-20T11:41:03;17.10;51.20
33881;DHT22;20172;47.530;10.256;2022-11-20T11:43:30;17.90;51.80
33881;DHT22;20172;47.530;10.256;2022-11-20T11:48:56;18.50;51.10
33881;DHT22;20172;47.530;10.256;2022-11-20T11:51:23;18.60;50.60
33881;DHT22;20172;47.530;10.256;2022-11-20T11:53:49;19.40;49.60
33881;DHT22;20172;47.530;10.256;2022-11-20T11:56:15;21.30;48.00
33881;DHT22;20172;47.530;10.256;2022-11-20T11:58:44;23.20;46.30
33881;DHT22;20172;47.530;10.256;2022-11-20T12:03:42;23.90;44.60
33881;DHT22;20172;47.530;10.256;2022-11-20T12:11:03;25.00;43.80
33881;DHT22;20172;47.530;10.256;2022-11-20T12:15:55;27.50;41.60
33881;DHT22;20172;47.530;10.256;2022-11-20T12:18:21;28.10;41.00
33881;DHT22;20172;47.530;10.256;2022-11-20T12:21:34;29.20;39.60
33881;DHT22;20172;47.530;10.256;2022-11-20T12:23:36;29.60;37.60
33881;DHT22;20172;47.530;10.256;2022-11-20T12:26:07;29.30;36.90
33881;DHT22;20172;47.530;10.256;2022-11-20T12:28:38;29.00;37.80
33881;DHT22;20172;47.530;10.256;2022-11-20T12:47:14;25.20;39.50
33881;DHT22;20172;47.530;10.256;2022-11-20T12:52:25;20.80;43.60
33881;DHT22;20172;47.530;10.256;2022-11-20T12:55:03;18.70;45.80
33881;DHT22;20172;47.530;10.256;2022-11-20T13:00:20;16.70;49.50
33881;DHT22;20172;47.530;10.256;2022-11-20T13:05:39;15.00;52.70
33881;DHT22;20172;47.530;10.256;2022-11-20T13:08:12;14.40;54.30
33881;DHT22;20172;47.530;10.256;2022-11-20T13:10:46;14.00;54.80
33881;DHT22;20172;47.530;10.256;2022-11-20T13:13:17;13.60;55.90
33881;DHT22;20172;47.530;10.256;2022-11-20T13:15:53;13.10;56.90
33881;DHT22;20172;47.530;10.256;2022-11-20T13:18:19;12.90;57.80
33881;DHT22;20172;47.530;10.256;2022-11-20T13:20:46;12.70;59.40
33881;DHT22;20172;47.530;10.256;2022-11-20T13:23:26;12.80;59.30
33881;DHT22;20172;47.530;10.256;2022-11-20T13:26:02;13.00;59.20
33881;DHT22;20172;47.530;10.256;2022-11-20T13:28:28;13.10;58.80
33881;DHT22;20172;47.530;10.256;2022-11-20T13:30:55;13.00;58.80
33881;DHT22;20172;47.530;10.256;2022-11-20T13:35:56;12.60;59.80
33881;DHT22;20172;47.530;10.256;2022-11-20T13:38:21;12.50;60.50
33881;DHT22;20172;47.530;10.256;2022-11-20T13:40:52;12.30;60.30
33881;DHT22;20172;47.530;10.256;2022-11-20T13:46:03;12.10;62.00
33881;DHT22;20172;47.530;10.256;2022-11-20T13:48:45;11.90;61.90
33881;DHT22;20172;47.530;10.256;2022-11-20T14:01:45;11.10;65.50
33881;DHT22;20172;47.530;10.256;2022-11-20T14:04:14;10.70;66.00
33881;DHT22;20172;47.530;10.256;2022-11-20T14:06:44;10.60;67.30
33881;DHT22;20172;47.530;10.256;2022-11-20T14:09:24;10.50;68.00
33881;DHT22;20172;47.530;10.256;2022-11-20T14:11:50;10.30;68.80
33881;DHT22;20172;47.530;10.256;2022-11-20T14:14:17;10.00;69.40
33881;DHT22;20172;47.530;10.256;2022-11-20T14:16:43;9.90;71.30
33881;DHT22;20172;47.530;10.256;2022-11-20T14:19:28;9.90;72.20
33881;DHT22;20172;47.530;10.256;2022-11-20T14:24:40;9.40;74.00
33881;DHT22;20172;47.530;10.256;2022-11-20T14:27:10;9.20;74.70
33881;DHT22;20172;47.530;10.256;2022-11-20T14:29:37;9.10;74.70
33881;DHT22;20172;47.530;10.256;2022-11-20T14:32:03;9.10;75.60
33881;DHT22;20172;47.530;10.256;2022-11-20T14:34:30;9.00;75.90
33881;DHT22;20172;47.530;10.256;2022-11-20T14:36:57;9.00;76.80
33881;DHT22;20172;47.530;10.256;2022-11-20T14:39:34;8.90;77.50
33881;DHT22;20172;47.530;10.256;2022-11-20T14:42:00;8.90;78.00
33881;DHT22;20172;47.530;10.256;2022-11-20T14:44:34;8.90;78.40
33881;DHT22;20172;47.530;10.256;2022-11-20T14:47:00;8.90;78.60
33881;DHT22;20172;47.530;10.256;2022-11-20T14:49:27;8.80;79.10
33881;DHT22;20172;47.530;10.256;2022-11-20T14:52:01;8.80;79.80
33881;DHT22;20172;47.530;10.256;2022-11-20T14:54:26;8.70;80.30
33881;DHT22;20172;47.530;10.256;2022-11-20T14:57:03;8.70;81.10
33881;DHT22;20172;47.530;10.256;2022-11-20T14:59:29;8.60;81.70
33881;DHT22;20172;47.530;10.256;2022-11-20T15:01:56;8.50;82.50
33881;DHT22;20172;47.530;10.256;2022-11-20T15:04:23;8.40;83.20
33881;DHT22;20172;47.530;10.256;2022-11-20T15:06:49;8.30;84.00
33881;DHT22;20172;47.530;10.256;2022-11-20T15:09:15;8.20;84.30
33881;DHT22;20172;47.530;10.256;2022-11-20T15:11:40;8.20;85.00
33881;DHT22;20172;47.530;10.256;2022-11-20T15:14:16;8.10;85.80
33881;DHT22;20172;47.530;10.256;2022-11-20T15:16:42;8.10;86.80
33881;DHT22;20172;47.530;10.256;2022-11-20T15:19:13;8.00;87.60
33881;DHT22;20172;47.530;10.256;2022-11-20T15:21:42;7.90;88.80
33881;DHT22;20172;47.530;10.256;2022-11-20T15:24:08;7.80;90.00
33881;DHT22;20172;47.530;10.256;2022-11-20T15:26:34;7.80;90.10
33881;DHT22;20172;47.530;10.256;2022-11-20T15:28:59;7.70;90.30
33881;DHT22;20172;47.530;10.256;2022-11-20T15:31:25;7.60;90.70
33881;DHT22;20172;47.530;10.256;2022-11-20T15:33:51;7.50;91.60
33881;DHT22;20172;47.530;10.256;2022-11-20T15:36:16;7.20;92.10
33881;DHT22;20172;47.530;10.256;2022-11-20T15:38:42;7.00;92.70
33881;DHT22;20172;47.530;10.256;2022-11-20T15:41:07;6.90;93.20
33881;DHT22;20172;47.530;10.256;2022-11-20T15:43:33;6.80;93.70
33881;DHT22;20172;47.530;10.256;2022-11-20T15:45:59;6.70;94.40
33881;DHT22;20172;47.530;10.256;2022-11-20T15:48:29;6.60;95.00
33881;DHT22;20172;47.530;10.256;2022-11-20T15:53:38;6.30;96.40
33881;DHT22;20172;47.530;10.256;2022-11-20T15:56:04;6.20;97.00
33881;DHT22;20172;47.530;10.256;2022-11-20T15:58:29;6.20;97.70
33881;DHT22;20172;47.530;10.256;2022-11-20T16:00:55;6.20;98.10
33881;DHT22;20172;47.530;10.256;2022-11-20T16:03:20;6.10;98.60
33881;DHT22;20172;47.530;10.256;2022-11-20T16:05:46;6.00;98.90
33881;DHT22;20172;47.530;10.256;2022-11-20T16:08:12;6.00;99.30
33881;DHT22;20172;47.530;10.256;2022-11-20T16:10:37;6.00;99.70
33881;DHT22;20172;47.530;10.256;2022-11-20T16:13:03;5.90;99.90
33881;DHT22;20172;47.530;10.256;2022-11-20T16:15:53;5.80;99.90
33881;DHT22;20172;47.530;10.256;2022-11-20T16:18:21;5.70;99.90
33881;DHT22;20172;47.530;10.256;2022-11-20T16:20:48;5.60;99.90
33881;DHT22;20172;47.530;10.256;2022-11-20T16:23:14;5.50;99.90
33881;DHT22;20172;47.530;10.256;2022-11-20T16:25:41;5.40;99.90
33881;DHT22;20172;47.530;10.256;2022-11-20T16:28:06;5.30;99.90
33881;DHT22;20172;47.530;10.256;2022-11-20T16:30:32;5.30;99.90
33881;DHT22;20172;47.530;10.256;2022-11-20T16:32:58;5.30;99.90
33881;DHT22;20172;47.530;10.256;2022-11-20T16:35:28;5.20;99.90
33881;DHT22;20172;47.530;10.256;2022-11-20T16:37:54;5.20;99.90
33881;DHT22;20172;47.530;10.256;2022-11-20T16:40:20;5.10;99.90
33881;DHT22;20172;47.530;10.256;2022-11-20T16:42:45;5.00;99.90
33881;DHT22;20172;47.530;10.256;2022-11-20T16:45:11;5.00;99.90
33881;DHT22;20172;47.530;10.256;2022-11-20T16:47:36;5.00;99.90
33881;DHT22;20172;47.530;10.256;2022-11-20T16:50:03;5.00;99.90
33881;DHT22;20172;47.530;10.256;2022-11-20T16:52:29;5.00;99.90
33881;DHT22;20172;47.530;10.256;2022-11-20T16:54:54;5.00;99.90
33881;DHT22;20172;47.530;10.256;2022-11-20T16:57:20;5.00;99.90
33881;DHT22;20172;47.530;10.256;2022-11-20T16:59:46;5.00;99.90
33881;DHT22;20172;47.530;10.256;2022-11-20T17:02:12;5.00;99.90
33881;DHT22;20172;47.530;10.256;2022-11-20T17:04:37;5.10;99.90
33881;DHT22;20172;47.530;10.256;2022-11-20T17:07:03;5.10;99.90
33881;DHT22;20172;47.530;10.256;2022-11-20T17:09:29;5.20;99.90
33881;DHT22;20172;47.530;10.256;2022-11-20T17:11:54;5.10;99.90